createdAt,value
2019-01-09T00:00:57.372Z,5.93
2019-01-09T00:03:27.742Z,5.92
2019-01-09T00:05:57.997Z,5.89
2019-01-09T00:08:30.479Z,5.83
2019-01-09T00:11:02.164Z,5.76
2019-01-09T00:13:32.352Z,5.67
2019-01-09T00:16:02.712Z,5.60
2019-01-09T00:18:38.314Z,5.57
2019-01-09T00:21:08.572Z,5.53
2019-01-09T00:23:38.794Z,5.47
2019-01-09T00:26:09.027Z,5.42
2019-01-09T00:28:39.294Z,5.39
2019-01-09T00:31:09.531Z,5.37
2019-01-09T00:33:39.761Z,5.39
2019-01-09T00:36:10.494Z,5.38
2019-01-09T00:38:43.979Z,5.34
2019-01-09T00:41:16.382Z,5.37
2019-01-09T00:43:46.650Z,5.41
2019-01-09T00:46:17.078Z,5.52
2019-01-09T00:48:47.337Z,5.62
2019-01-09T00:51:19.845Z,5.59
2019-01-09T00:53:50.206Z,5.36
2019-01-09T00:56:26.718Z,5.09
2019-01-09T00:58:56.931Z,4.87
2019-01-09T01:01:27.194Z,4.69
2019-01-09T01:04:50.922Z,4.59
2019-01-09T01:07:58.010Z,4.52
2019-01-09T01:11:17.760Z,4.41
2019-01-09T01:14:52.752Z,4.34
2019-01-09T01:18:18.811Z,4.28
2019-01-09T01:21:02.258Z,4.21
2019-01-09T01:24:27.138Z,4.19
2019-01-09T01:28:06.301Z,4.16
2019-01-09T01:31:52.358Z,4.14
2019-01-09T01:35:03.440Z,4.16
2019-01-09T01:38:24.807Z,4.16
2019-01-09T01:41:28.565Z,4.20
2019-01-09T01:44:35.716Z,4.22
2019-01-09T01:48:24.359Z,4.27
2019-01-09T01:51:28.630Z,4.34
2019-01-09T01:54:24.544Z,4.35
2019-01-09T01:57:32.766Z,4.46
2019-01-09T02:00:56.999Z,4.51
2019-01-09T02:04:15.525Z,4.55
2019-01-09T02:07:25.238Z,4.59
2019-01-09T02:11:06.221Z,4.65
2019-01-09T02:14:28.289Z,4.69
2019-01-09T02:17:27.661Z,4.74
2019-01-09T02:20:45.522Z,4.78
2019-01-09T02:24:13.167Z,4.84
2019-01-09T02:27:43.817Z,4.84
2019-01-09T02:31:20.891Z,4.91
2019-01-09T02:33:52.194Z,4.98
2019-01-09T02:36:25.498Z,5.01
2019-01-09T02:38:57.471Z,5.05
2019-01-09T02:41:27.654Z,5.10
2019-01-09T02:43:57.845Z,5.15
2019-01-09T02:46:27.925Z,5.18
2019-01-09T02:48:58.123Z,5.17
2019-01-09T02:51:28.318Z,5.13
2019-01-09T02:53:59.577Z,5.10
2019-01-09T02:56:32.277Z,5.09
2019-01-09T02:59:02.508Z,5.05
2019-01-09T03:01:34.627Z,5.01
2019-01-09T03:04:06.844Z,5.00
2019-01-09T03:06:36.783Z,5.00
2019-01-09T03:09:07.446Z,4.99
2019-01-09T03:11:37.780Z,5.00
2019-01-09T03:14:08.105Z,5.03
2019-01-09T03:16:38.429Z,5.02
2019-01-09T03:19:08.725Z,4.99
2019-01-09T03:21:39.018Z,4.95
2019-01-09T03:24:09.275Z,4.96
2019-01-09T03:26:42.645Z,4.96
2019-01-09T03:29:12.983Z,4.94
2019-01-09T03:31:46.322Z,4.93
2019-01-09T03:34:16.697Z,4.92
2019-01-09T03:36:49.017Z,4.91
2019-01-09T03:39:19.359Z,4.90
2019-01-09T03:41:49.611Z,4.92
2019-01-09T03:44:21.681Z,4.90
2019-01-09T03:46:53.176Z,4.91
2019-01-09T03:49:23.396Z,4.96
2019-01-09T03:51:53.576Z,5.02
2019-01-09T03:54:23.830Z,5.04
2019-01-09T03:56:54.224Z,5.02
2019-01-09T03:59:24.412Z,4.95
2019-01-09T04:01:57.420Z,4.91
2019-01-09T04:04:30.501Z,4.87
2019-01-09T04:07:00.760Z,4.80
2019-01-09T04:09:30.992Z,4.77
2019-01-09T04:12:04.504Z,4.75
2019-01-09T04:14:36.636Z,4.75
2019-01-09T04:17:08.046Z,4.73
2019-01-09T04:19:40.080Z,4.71
2019-01-09T04:22:10.382Z,4.71
2019-01-09T04:24:40.663Z,4.69
2019-01-09T04:27:10.871Z,4.67
2019-01-09T04:29:44.245Z,4.68
2019-01-09T04:32:15.517Z,4.68
2019-01-09T04:34:47.551Z,4.67
2019-01-09T04:37:17.803Z,4.66
2019-01-09T04:39:48.151Z,4.68
2019-01-09T04:42:18.533Z,4.66
2019-01-09T04:44:51.967Z,4.67
2019-01-09T04:47:30.879Z,4.68
2019-01-09T04:50:01.409Z,4.72
2019-01-09T04:52:33.039Z,4.73
2019-01-09T04:55:03.373Z,4.72
2019-01-09T04:57:34.176Z,4.72
2019-01-09T05:00:04.496Z,4.68
2019-01-09T05:02:37.117Z,4.68
2019-01-09T05:05:07.607Z,4.66
2019-01-09T05:07:40.260Z,4.65
2019-01-09T05:10:13.129Z,4.63
2019-01-09T05:12:43.557Z,4.61
2019-01-09T05:15:13.884Z,4.59
2019-01-09T05:17:46.488Z,4.61
2019-01-09T05:20:16.948Z,4.62
2019-01-09T05:22:55.723Z,4.59
2019-01-09T05:25:26.067Z,4.59
2019-01-09T05:28:30.548Z,4.60
2019-01-09T05:31:22.999Z,4.62
2019-01-09T05:34:19.553Z,4.65
2019-01-09T05:36:59.857Z,4.74
2019-01-09T05:40:03.358Z,4.87
2019-01-09T05:43:10.767Z,4.98
2019-01-09T05:45:44.203Z,5.04
2019-01-09T05:48:32.813Z,4.97
2019-01-09T05:51:06.346Z,4.89
2019-01-09T05:58:13.324Z,4.87
2019-01-09T06:05:12.445Z,4.77
2019-01-09T06:05:33.483Z,4.76
2019-01-09T06:08:16.336Z,4.63
2019-01-09T06:11:21.941Z,4.56
2019-01-09T06:14:03.024Z,4.54
2019-01-09T06:17:02.256Z,4.47
2019-01-09T06:19:45.107Z,4.44
2019-01-09T06:22:17.785Z,4.37
2019-01-09T06:25:10.797Z,4.32
2019-01-09T06:27:53.605Z,4.30
2019-01-09T06:30:36.907Z,4.25
2019-01-09T06:33:18.786Z,4.23
2019-01-09T06:35:56.939Z,4.20
2019-01-09T06:39:34.604Z,4.14
2019-01-09T06:41:53.299Z,4.08
2019-01-09T06:44:33.635Z,4.02
2019-01-09T06:47:42.156Z,3.94
2019-01-09T06:50:12.670Z,3.90
2019-01-09T06:52:54.501Z,3.86
2019-01-09T06:55:57.310Z,3.82
2019-01-09T06:58:58.437Z,3.76
2019-01-09T07:01:28.639Z,3.75
2019-01-09T07:04:07.692Z,3.73
2019-01-09T07:06:39.173Z,3.73
2019-01-09T07:09:09.481Z,3.79
2019-01-09T07:11:39.665Z,3.82
2019-01-09T07:14:09.907Z,3.81
2019-01-09T07:16:40.123Z,3.81
2019-01-09T07:19:10.273Z,3.81
2019-01-09T07:21:45.710Z,3.83
2019-01-09T07:24:13.771Z,3.87
2019-01-09T07:26:43.968Z,3.91
2019-01-09T07:29:14.088Z,3.92
2019-01-09T07:31:44.297Z,3.94
2019-01-09T07:34:14.539Z,3.93
2019-01-09T07:36:46.998Z,3.93
2019-01-09T07:39:17.071Z,3.93
2019-01-09T07:41:50.376Z,3.94
2019-01-09T07:44:20.621Z,4.00
2019-01-09T07:46:50.744Z,4.05
2019-01-09T07:49:20.940Z,4.13
2019-01-09T07:51:54.175Z,4.19
2019-01-09T07:54:25.700Z,4.23
2019-01-09T07:56:59.211Z,4.24
2019-01-09T07:59:31.294Z,4.26
2019-01-09T08:02:01.500Z,4.28
2019-01-09T08:04:37.732Z,4.27
2019-01-09T08:07:11.313Z,4.27
2019-01-09T08:09:42.955Z,4.27
2019-01-09T08:12:17.408Z,4.23
2019-01-09T08:14:47.783Z,4.20
2019-01-09T08:17:18.002Z,4.21
2019-01-09T08:19:49.545Z,4.21
2019-01-09T08:22:23.155Z,4.20
2019-01-09T08:24:53.603Z,4.20
2019-01-09T08:27:26.872Z,4.24
2019-01-09T08:29:57.003Z,4.28
2019-01-09T08:32:27.140Z,4.34
2019-01-09T08:34:57.275Z,4.49
2019-01-09T08:37:27.509Z,4.64
2019-01-09T08:39:57.646Z,4.79
2019-01-09T08:42:27.878Z,4.91
2019-01-09T08:44:58.164Z,5.00
2019-01-09T08:47:40.882Z,5.07
2019-01-09T08:50:11.576Z,5.15
2019-01-09T08:52:57.256Z,5.23
2019-01-09T08:55:49.286Z,5.33
2019-01-09T08:58:23.554Z,5.41
2019-01-09T09:00:56.742Z,5.50
2019-01-09T09:03:34.067Z,5.63
2019-01-09T09:06:06.576Z,5.74
2019-01-09T09:08:39.152Z,5.83
2019-01-09T09:11:09.434Z,5.87
2019-01-09T09:13:51.302Z,5.91
2019-01-09T09:16:24.734Z,5.87
2019-01-09T09:18:55.074Z,5.85
2019-01-09T09:21:25.345Z,5.88
2019-01-09T09:23:55.477Z,5.89
2019-01-09T09:26:26.794Z,5.88
2019-01-09T09:28:57.205Z,5.85
2019-01-09T09:31:27.412Z,5.89
2019-01-09T09:33:57.660Z,5.86
2019-01-09T09:36:27.788Z,5.87
2019-01-09T09:38:57.921Z,5.85
2019-01-09T09:41:29.322Z,5.86
2019-01-09T09:43:59.441Z,5.94
2019-01-09T09:46:29.671Z,6.05
2019-01-09T09:48:59.798Z,6.09
2019-01-09T09:51:29.991Z,6.07
2019-01-09T09:54:00.113Z,6.02
2019-01-09T09:56:30.369Z,5.98
2019-01-09T09:59:00.599Z,5.94
2019-01-09T10:01:30.810Z,5.94
2019-01-09T10:04:00.949Z,5.94
2019-01-09T10:06:31.084Z,5.97
2019-01-09T10:09:01.227Z,5.99
2019-01-09T10:11:31.385Z,6.02
2019-01-09T10:14:01.701Z,6.00
2019-01-09T10:16:31.927Z,6.03
2019-01-09T10:19:02.125Z,6.09
2019-01-09T10:21:32.520Z,6.22
2019-01-09T10:24:02.713Z,6.27
2019-01-09T10:26:32.845Z,6.21
2019-01-09T10:29:05.793Z,6.13
2019-01-09T10:31:37.449Z,6.06
2019-01-09T10:34:07.815Z,6.02
2019-01-09T10:36:38.032Z,6.00
2019-01-09T10:39:10.234Z,5.97
2019-01-09T10:41:40.559Z,5.97
2019-01-09T10:44:18.855Z,5.95
2019-01-09T10:46:49.221Z,5.94
2019-01-09T10:49:19.500Z,5.92
2019-01-09T10:51:49.802Z,5.92
2019-01-09T10:54:22.544Z,5.96
2019-01-09T10:56:54.566Z,6.00
2019-01-09T10:59:27.492Z,6.05
2019-01-09T11:01:58.957Z,6.10
2019-01-09T11:04:36.969Z,6.10
2019-01-09T11:07:24.844Z,6.06
2019-01-09T11:09:55.707Z,6.04
2019-01-09T11:12:35.957Z,5.98
2019-01-09T11:15:11.067Z,5.98
2019-01-09T11:17:44.479Z,5.94
2019-01-09T11:20:29.876Z,5.92
2019-01-09T11:23:02.213Z,5.90
2019-01-09T11:25:44.858Z,5.88
2019-01-09T11:28:16.046Z,5.89
2019-01-09T11:30:46.007Z,5.91
2019-01-09T11:33:23.065Z,5.91
2019-01-09T11:35:53.346Z,5.93
2019-01-09T11:38:23.625Z,5.93
2019-01-09T11:40:56.977Z,5.94
2019-01-09T11:43:27.354Z,5.97
2019-01-09T11:46:03.099Z,5.98
2019-01-09T11:48:38.559Z,5.99
2019-01-09T11:51:21.091Z,6.01
2019-01-09T11:53:55.847Z,6.04
2019-01-09T11:56:39.820Z,6.09
2019-01-09T11:59:26.718Z,6.12
2019-01-09T12:02:00.965Z,6.23
2019-01-09T12:04:34.313Z,6.27
2019-01-09T12:07:09.113Z,6.25
2019-01-09T12:09:42.043Z,6.23
2019-01-09T12:12:12.417Z,6.22
2019-01-09T12:14:50.463Z,6.20
2019-01-09T12:17:20.659Z,6.23
2019-01-09T12:19:50.993Z,6.22
2019-01-09T12:22:29.079Z,6.22
2019-01-09T12:25:03.697Z,6.23
2019-01-09T12:27:35.326Z,6.23
2019-01-09T12:30:15.195Z,6.23
2019-01-09T12:32:47.266Z,6.25
2019-01-09T12:35:24.836Z,6.31
2019-01-09T12:37:59.377Z,6.34
2019-01-09T12:40:30.948Z,6.35
2019-01-09T12:43:04.468Z,6.41
2019-01-09T12:45:34.910Z,6.45
2019-01-09T12:48:08.136Z,6.50
2019-01-09T12:50:40.481Z,6.47
2019-01-09T12:53:11.256Z,6.47
2019-01-09T12:55:44.276Z,6.45
2019-01-09T12:58:20.553Z,6.40
2019-01-09T13:00:52.357Z,6.41
2019-01-09T13:03:28.225Z,6.41
2019-01-09T13:06:02.839Z,6.45
2019-01-09T13:08:36.882Z,6.48
2019-01-09T13:11:14.924Z,6.51
2019-01-09T13:13:45.130Z,6.48
2019-01-09T13:16:15.470Z,6.52
2019-01-09T13:18:55.954Z,6.94
2019-01-09T13:21:34.008Z,7.31
2019-01-09T13:24:10.365Z,7.80
2019-01-09T13:26:46.517Z,8.15
2019-01-09T13:29:19.869Z,8.42
2019-01-09T13:31:53.562Z,8.63
2019-01-09T13:34:26.759Z,8.80
2019-01-09T13:36:58.754Z,9.00
2019-01-09T13:39:31.506Z,8.90
2019-01-09T13:42:03.702Z,8.36
2019-01-09T13:44:38.441Z,7.81
2019-01-09T13:47:20.806Z,7.38
2019-01-09T13:49:56.734Z,7.10
2019-01-09T13:52:45.635Z,6.89
2019-01-09T13:55:16.488Z,6.75
2019-01-09T13:57:53.611Z,6.62
2019-01-09T14:00:24.354Z,6.56
2019-01-09T14:03:03.500Z,6.50
2019-01-09T14:05:36.461Z,6.48
2019-01-09T14:08:07.167Z,6.46
2019-01-09T14:10:37.487Z,6.45
2019-01-09T14:13:10.767Z,6.37
2019-01-09T14:15:41.028Z,6.24
2019-01-09T14:18:11.311Z,6.12
2019-01-09T14:20:43.951Z,6.00
2019-01-09T14:23:14.522Z,5.92
2019-01-09T14:25:48.411Z,5.85
2019-01-09T14:28:18.862Z,5.80
2019-01-09T14:30:52.206Z,5.80
2019-01-09T14:33:29.757Z,5.80
2019-01-09T14:36:12.205Z,5.81
2019-01-09T14:38:44.558Z,5.75
2019-01-09T14:41:17.699Z,5.68
2019-01-09T14:43:48.042Z,5.62
2019-01-09T14:46:21.530Z,5.56
2019-01-09T14:48:55.607Z,5.48
2019-01-09T14:51:25.985Z,5.40
2019-01-09T14:53:59.184Z,5.32
2019-01-09T14:56:52.408Z,5.27
2019-01-09T14:59:22.518Z,5.21
2019-01-09T15:01:53.845Z,5.15
2019-01-09T15:04:23.963Z,5.11
2019-01-09T15:06:54.202Z,5.06
2019-01-09T15:09:37.039Z,5.07
2019-01-09T15:12:11.476Z,5.07
2019-01-09T15:14:45.493Z,5.04
2019-01-09T15:17:23.403Z,5.01
2019-01-09T15:19:53.678Z,4.97
2019-01-09T15:22:25.160Z,4.96
2019-01-09T15:24:58.461Z,4.92
2019-01-09T15:27:40.850Z,4.90
2019-01-09T15:30:34.101Z,4.89
2019-01-09T15:33:04.415Z,4.84
2019-01-09T15:35:38.446Z,4.75
2019-01-09T15:38:36.909Z,4.71
2019-01-09T15:41:16.048Z,4.66
2019-01-09T15:43:52.962Z,4.59
2019-01-09T15:47:16.102Z,4.56
2019-01-09T15:49:53.547Z,4.50
2019-01-09T15:52:48.536Z,4.49
2019-01-09T15:56:01.832Z,4.49
2019-01-09T15:59:54.864Z,4.46
2019-01-09T16:03:12.062Z,4.42
2019-01-09T16:06:53.685Z,4.37
2019-01-09T16:12:51.132Z,4.35
2019-01-09T16:16:30.284Z,4.37
2019-01-09T16:23:14.657Z,4.32
2019-01-09T16:29:47.015Z,4.32
2019-01-09T16:34:16.111Z,4.29
2019-01-09T16:44:32.348Z,4.31
2019-01-09T16:48:01.818Z,4.36
2019-01-09T16:51:33.435Z,4.42
2019-01-09T16:54:11.573Z,4.46
2019-01-09T16:57:48.672Z,4.48
2019-01-09T17:00:33.083Z,4.49
2019-01-09T17:03:09.480Z,4.50
2019-01-09T17:05:47.942Z,4.50
2019-01-09T17:08:44.962Z,4.52
2019-01-09T17:11:26.176Z,4.50
2019-01-09T17:15:41.487Z,4.50
2019-01-09T17:28:00.123Z,4.36
2019-01-09T17:33:41.523Z,4.26
2019-01-09T17:37:43.982Z,4.23
2019-01-09T17:41:02.265Z,4.20
2019-01-09T17:44:42.232Z,4.10
2019-01-09T17:47:56.189Z,4.05
2019-01-09T17:51:09.802Z,4.03
2019-01-09T17:53:47.733Z,4.02
2019-01-09T17:56:18.343Z,4.01
2019-01-09T17:58:48.809Z,4.03
2019-01-09T18:01:22.972Z,4.05
2019-01-09T18:03:53.408Z,4.04
2019-01-09T18:06:27.825Z,3.99
2019-01-09T18:09:00.878Z,3.97
2019-01-09T18:11:37.286Z,3.95
2019-01-09T18:14:09.177Z,3.94
2019-01-09T18:16:44.613Z,3.90
2019-01-09T18:19:19.377Z,3.86
2019-01-09T18:21:52.495Z,3.85
2019-01-09T18:24:23.127Z,3.85
2019-01-09T18:26:59.333Z,3.83
2019-01-09T18:29:35.562Z,3.83
2019-01-09T18:33:17.888Z,3.81
2019-01-09T18:36:21.245Z,3.81
2019-01-09T18:39:53.163Z,3.80
2019-01-09T18:43:22.230Z,3.81
2019-01-09T18:46:57.580Z,3.81
2019-01-09T18:50:25.534Z,3.77
2019-01-09T18:53:23.474Z,3.80
2019-01-09T18:55:53.869Z,3.78
2019-01-09T18:58:49.552Z,3.75
2019-01-09T19:01:19.859Z,3.77
2019-01-09T19:03:50.110Z,3.78
2019-01-09T19:06:20.490Z,3.77
2019-01-09T19:08:50.831Z,3.75
2019-01-09T19:11:21.055Z,3.73
2019-01-09T19:14:01.012Z,3.73
2019-01-09T19:16:34.132Z,3.70
2019-01-09T19:19:04.542Z,3.67
2019-01-09T19:21:34.803Z,3.69
2019-01-09T19:24:05.926Z,3.65
2019-01-09T19:26:37.239Z,3.66
2019-01-09T19:29:07.767Z,3.62
2019-01-09T19:31:40.742Z,3.63
2019-01-09T19:34:21.869Z,3.66
2019-01-09T19:36:51.955Z,3.62
2019-01-09T19:39:25.704Z,3.62
2019-01-09T19:41:56.153Z,3.64
2019-01-09T19:44:27.702Z,3.68
2019-01-09T19:46:58.058Z,3.69
2019-01-09T19:49:28.423Z,3.72
2019-01-09T19:52:14.573Z,3.72
2019-01-09T19:54:44.876Z,3.71
2019-01-09T19:57:15.327Z,3.70
2019-01-09T19:59:46.131Z,3.74
2019-01-09T20:02:16.675Z,3.75
2019-01-09T20:04:47.155Z,3.74
2019-01-09T20:07:19.698Z,3.73
2019-01-09T20:10:25.735Z,3.72
2019-01-09T20:12:56.171Z,3.68
2019-01-09T20:15:26.649Z,3.63
2019-01-09T20:17:56.956Z,3.64
2019-01-09T20:20:28.349Z,3.63
2019-01-09T20:23:17.352Z,3.67
2019-01-09T20:25:47.966Z,3.66
2019-01-09T20:28:18.285Z,3.66
2019-01-09T20:30:51.865Z,3.64
2019-01-09T20:33:22.169Z,3.63
2019-01-09T20:35:52.660Z,3.65
2019-01-09T20:38:42.237Z,3.64
2019-01-09T20:41:12.521Z,3.66
2019-01-09T20:43:42.874Z,3.72
2019-01-09T20:46:13.400Z,3.72
2019-01-09T20:48:43.810Z,3.70
2019-01-09T20:51:17.029Z,3.70
2019-01-09T20:53:47.433Z,3.64
2019-01-09T20:56:35.221Z,3.62
2019-01-09T20:59:05.604Z,3.63
2019-01-09T21:01:35.960Z,3.62
2019-01-09T21:04:06.551Z,3.59
2019-01-09T21:06:36.921Z,3.55
2019-01-09T21:09:08.753Z,3.54
2019-01-09T21:11:44.534Z,3.51
2019-01-09T21:14:40.578Z,3.48
2019-01-09T21:17:11.016Z,3.44
2019-01-09T21:19:41.395Z,3.42
2019-01-09T21:22:11.639Z,3.36
2019-01-09T21:24:42.041Z,3.34
2019-01-09T21:27:24.086Z,3.31
2019-01-09T21:30:02.639Z,3.25
2019-01-09T21:32:32.981Z,3.22
2019-01-09T21:35:03.372Z,3.21
2019-01-09T21:37:33.683Z,3.19
2019-01-09T21:40:04.861Z,3.16
2019-01-09T21:42:35.113Z,3.13
2019-01-09T21:45:34.494Z,3.09
2019-01-09T21:48:04.744Z,3.08
2019-01-09T21:50:35.032Z,3.03
2019-01-09T21:53:05.557Z,3.00
2019-01-09T21:55:35.927Z,3.01
2019-01-09T21:58:13.495Z,2.99
2019-01-09T22:00:43.759Z,2.99
2019-01-09T22:03:14.041Z,3.03
2019-01-09T22:05:44.324Z,3.04
2019-01-09T22:08:14.569Z,3.04
2019-01-09T22:10:44.879Z,3.08
2019-01-09T22:13:15.138Z,3.09
2019-01-09T22:15:45.493Z,3.09
2019-01-09T22:18:15.847Z,3.03
2019-01-09T22:20:46.100Z,3.05
2019-01-09T22:23:16.448Z,3.02
2019-01-09T22:25:47.131Z,3.00
2019-01-09T22:28:17.367Z,2.96
2019-01-09T22:30:47.689Z,2.93
2019-01-09T22:33:17.966Z,2.90
2019-01-09T22:35:48.312Z,2.85
2019-01-09T22:38:18.565Z,2.81
2019-01-09T22:40:48.962Z,2.75
2019-01-09T22:43:28.286Z,2.70
2019-01-09T22:45:58.572Z,2.67
2019-01-09T22:48:28.735Z,2.62
2019-01-09T22:50:59.316Z,2.60
2019-01-09T22:53:29.660Z,2.58
2019-01-09T22:55:59.992Z,2.53
2019-01-09T22:58:30.536Z,2.47
2019-01-09T23:01:17.776Z,2.43
2019-01-09T23:03:48.658Z,2.41
2019-01-09T23:06:18.902Z,2.36
2019-01-09T23:08:49.099Z,2.38
2019-01-09T23:11:19.311Z,2.37
2019-01-09T23:13:49.505Z,2.32
2019-01-09T23:16:19.899Z,2.26
2019-01-09T23:18:50.078Z,2.25
2019-01-09T23:21:20.273Z,2.20
2019-01-09T23:23:50.496Z,2.20
2019-01-09T23:26:20.678Z,2.15
2019-01-09T23:28:51.095Z,2.13
2019-01-09T23:31:21.301Z,2.11
2019-01-09T23:33:51.427Z,2.10
2019-01-09T23:36:23.750Z,2.05
2019-01-09T23:38:53.889Z,2.01
2019-01-09T23:41:24.092Z,1.97
2019-01-09T23:43:54.311Z,1.94
2019-01-09T23:46:24.498Z,1.89
2019-01-09T23:48:54.799Z,1.85
2019-01-09T23:51:24.986Z,1.81
2019-01-09T23:53:55.079Z,1.76
2019-01-09T23:56:25.275Z,1.70
2019-01-09T23:58:55.381Z,1.66
